| time (UTC) | temp F | wind direction | speed MPH | gust MPH | rain 1hr in | rain 24hr in | rain mn in | humidity % | barometer mb |
| 20260509164830 | 51 | 106 | 2.0 | 4.0 | 0.00 | 0.00 | 0.00 | 65 | 1027.7 |
| 20260509163029 | 51 | 111 | 2.0 | 6.0 | 0.00 | 0.00 | 0.00 | 64 | 1027.9 |
| 20260509162130 | 51 | 150 | 1.0 | 3.0 | 0.00 | 0.00 | 0.00 | 64 | 1027.9 |
| 20260509160330 | 51 | 150 | 0.0 | 2.0 | 0.00 | 0.00 | 0.00 | 64 | 1028.0 |
| 20260509155429 | 51 | 149 | 1.0 | 2.0 | 0.00 | 0.00 | 0.00 | 64 | 1028.1 |
| 20260509154529 | 51 | 150 | 0.0 | 1.0 | 0.00 | 0.00 | 0.00 | 64 | 1028.1 |
| 20260509153630 | 52 | 149 | 1.0 | 2.0 | 0.00 | 0.00 | 0.00 | 64 | 1028.0 |
| 20260509152729 | 52 | 150 | 1.0 | 2.0 | 0.00 | 0.00 | 0.00 | 64 | 1028.0 |
| 20260509151829 | 52 | 150 | 1.0 | 2.0 | 0.00 | 0.00 | 0.00 | 64 | 1028.1 |
| 20260509150029 | 51 | 151 | 1.0 | 3.0 | 0.00 | 0.00 | 0.00 | 64 | 1028.1 |
| 20260509145129 | 52 | 156 | 2.0 | 5.0 | 0.00 | 0.00 | 0.00 | 64 | 1028.1 |
| 20260509144229 | 51 | 188 | 1.0 | 2.0 | 0.00 | 0.00 | 0.00 | 64 | 1028.2 |
| 20260509143329 | 52 | 188 | 1.0 | 3.0 | 0.00 | 0.00 | 0.00 | 64 | 1028.2 |
| 20260509142429 | 52 | 131 | 2.0 | 3.0 | 0.00 | 0.00 | 0.00 | 64 | 1028.3 |
| 20260509141529 | 52 | 103 | 1.0 | 2.0 | 0.00 | 0.00 | 0.00 | 64 | 1028.4 |
| 20260509140629 | 52 | 103 | 1.0 | 2.0 | 0.00 | 0.00 | 0.00 | 64 | 1028.4 |
| 20260509135729 | 52 | 117 | 0.0 | 2.0 | 0.00 | 0.00 | 0.00 | 64 | 1028.3 |
| 20260509134829 | 52 | 134 | 1.0 | 2.0 | 0.00 | 0.00 | 0.00 | 63 | 1028.3 |
| 20260509133929 | 52 | 134 | 1.0 | 2.0 | 0.00 | 0.00 | 0.00 | 63 | 1028.3 |
| 20260509133029 | 53 | 134 | 1.0 | 2.0 | 0.00 | 0.00 | 0.00 | 63 | 1028.3 |
| 20260509132129 | 53 | 134 | 1.0 | 2.0 | 0.00 | 0.00 | 0.00 | 63 | 1028.3 |
| 20260509131228 | 53 | 134 | 1.0 | 2.0 | 0.00 | 0.00 | 0.00 | 64 | 1028.4 |
| 20260509130329 | 53 | 134 | 2.0 | 3.0 | 0.00 | 0.00 | 0.00 | 64 | 1028.5 |
| 20260509124529 | 53 | 130 | 2.0 | 3.0 | 0.00 | 0.00 | 0.00 | 63 | 1028.5 |
| 20260509123629 | 53 | 125 | 2.0 | 4.0 | 0.00 | 0.00 | 0.00 | 63 | 1028.5 |
| 20260509122728 | 53 | 142 | 3.0 | 6.0 | 0.00 | 0.00 | 0.00 | 63 | 1028.5 |
| 20260509121829 | 53 | 147 | 3.0 | 5.0 | 0.00 | 0.00 | 0.00 | 63 | 1028.5 |
| 20260509120929 | 54 | 148 | 3.0 | 5.0 | 0.00 | 0.00 | 0.00 | 63 | 1028.4 |
| 20260509120028 | 54 | 150 | 2.0 | 5.0 | 0.00 | 0.00 | 0.00 | 63 | 1028.3 |
| 20260509115129 | 54 | 152 | 2.0 | 4.0 | 0.00 | 0.00 | 0.00 | 63 | 1028.3 |
| 20260509113329 | 54 | 135 | 2.0 | 4.0 | 0.00 | 0.00 | 0.00 | 63 | 1028.2 |
| 20260509105729 | 55 | 134 | 2.0 | 3.0 | 0.00 | 0.00 | 0.00 | 63 | 1028.3 |
| 20260509104828 | 55 | 136 | 1.0 | 2.0 | 0.00 | 0.00 | 0.00 | 63 | 1028.3 |
| 20260509103929 | 56 | 121 | 0.0 | 2.0 | 0.00 | 0.00 | 0.00 | 63 | 1028.3 |
| 20260509103028 | 56 | 121 | 1.0 | 3.0 | 0.00 | 0.00 | 0.00 | 63 | 1028.2 |
| 20260509102128 | 56 | 134 | 3.0 | 5.0 | 0.00 | 0.00 | 0.00 | 63 | 1028.2 |
| 20260509101228 | 56 | 149 | 4.0 | 6.0 | 0.00 | 0.00 | 0.00 | 63 | 1028.3 |
| 20260509100328 | 56 | 152 | 4.0 | 8.0 | 0.00 | 0.00 | 0.00 | 63 | 1028.3 |
| 20260509095428 | 56 | 150 | 4.0 | 9.0 | 0.00 | 0.00 | 0.00 | 63 | 1028.3 |
| 20260509094528 | 57 | 184 | 1.0 | 4.0 | 0.00 | 0.00 | 0.00 | 63 | 1028.2 |
| 20260509093629 | 57 | 181 | 0.0 | 2.0 | 0.00 | 0.00 | 0.00 | 63 | 1028.2 |
| 20260509092728 | 57 | 0 | 0.0 | 0.0 | 0.00 | 0.00 | 0.00 | 63 | 1028.1 |
| 20260509091829 | 58 | 181 | 0.0 | 1.0 | 0.00 | 0.00 | 0.00 | 63 | 1028.1 |
| 20260509090928 | 58 | 181 | 0.0 | 1.0 | 0.00 | 0.00 | 0.00 | 63 | 1028.1 |
| 20260509084228 | 59 | 181 | 0.0 | 1.0 | 0.00 | 0.00 | 0.00 | 64 | 1028.0 |
| 20260509083328 | 59 | 181 | 1.0 | 2.0 | 0.00 | 0.00 | 0.00 | 64 | 1027.9 |
| 20260509082429 | 60 | 189 | 2.0 | 3.0 | 0.00 | 0.00 | 0.00 | 64 | 1027.7 |
| 20260509081528 | 60 | 197 | 2.0 | 3.0 | 0.00 | 0.00 | 0.00 | 64 | 1027.6 |
| 20260509080628 | 60 | 208 | 2.0 | 5.0 | 0.00 | 0.00 | 0.00 | 63 | 1027.5 |
| 20260509075728 | 60 | 207 | 3.0 | 6.0 | 0.00 | 0.00 | 0.00 | 63 | 1027.5 |
| 20260509074828 | 60 | 205 | 3.0 | 6.0 | 0.00 | 0.00 | 0.00 | 63 | 1027.6 |
| 20260509073929 | 60 | 217 | 3.0 | 7.0 | 0.00 | 0.00 | 0.00 | 63 | 1027.6 |
| 20260509073028 | 60 | 208 | 3.0 | 5.0 | 0.00 | 0.00 | 0.00 | 63 | 1027.6 |
| 20260509072128 | 61 | 217 | 4.0 | 8.0 | 0.00 | 0.00 | 0.00 | 62 | 1027.5 |
| 20260509071228 | 61 | 238 | 4.0 | 8.0 | 0.00 | 0.00 | 0.00 | 62 | 1027.4 |
| 20260509065428 | 61 | 234 | 4.0 | 8.0 | 0.00 | 0.00 | 0.00 | 62 | 1027.4 |
| 20260509063629 | 62 | 235 | 5.0 | 10.0 | 0.00 | 0.00 | 0.00 | 61 | 1027.4 |
| 20260509062728 | 62 | 230 | 6.0 | 12.0 | 0.00 | 0.00 | 0.00 | 60 | 1027.4 |
| 20260509061827 | 62 | 218 | 4.0 | 11.0 | 0.00 | 0.00 | 0.00 | 60 | 1027.5 |
| 20260509060928 | 62 | 222 | 4.0 | 9.0 | 0.00 | 0.00 | 0.00 | 60 | 1027.3 |
| 20260509060027 | 62 | 216 | 3.0 | 8.0 | 0.00 | 0.00 | 0.00 | 60 | 1027.4 |
| 20260509055127 | 63 | 212 | 5.0 | 9.0 | 0.00 | 0.00 | 0.00 | 59 | 1027.4 |
| 20260509053327 | 64 | 213 | 4.0 | 9.0 | 0.00 | 0.00 | 0.00 | 60 | 1027.5 |
| 20260509052428 | 63 | 241 | 6.0 | 11.0 | 0.00 | 0.00 | 0.00 | 60 | 1027.5 |
| 20260509051527 | 63 | 231 | 6.0 | 12.0 | 0.00 | 0.00 | 0.00 | 60 | 1027.5 |
| 20260509045727 | 62 | 235 | 4.0 | 8.0 | 0.00 | 0.00 | 0.00 | 61 | 1027.6 |
| 20260509044828 | 62 | 221 | 5.0 | 11.0 | 0.00 | 0.00 | 0.00 | 61 | 1027.6 |
| 20260509043928 | 62 | 236 | 5.0 | 11.0 | 0.00 | 0.00 | 0.00 | 61 | 1027.7 |
| 20260509043027 | 62 | 246 | 4.0 | 11.0 | 0.00 | 0.00 | 0.00 | 61 | 1027.7 |
| 20260509042128 | 62 | 250 | 4.0 | 9.0 | 0.00 | 0.00 | 0.00 | 62 | 1027.7 |
| 20260509041227 | 62 | 242 | 5.0 | 9.0 | 0.00 | 0.00 | 0.00 | 63 | 1027.8 |
| 20260509040327 | 62 | 234 | 4.0 | 8.0 | 0.00 | 0.00 | 0.00 | 62 | 1027.8 |
| 20260509034528 | 62 | 224 | 4.0 | 7.0 | 0.00 | 0.00 | 0.00 | 63 | 1027.9 |
| 20260509033628 | 61 | 228 | 5.0 | 9.0 | 0.00 | 0.00 | 0.00 | 63 | 1027.9 |
| 20260509031827 | 62 | 209 | 2.0 | 7.0 | 0.00 | 0.00 | 0.00 | 63 | 1028.3 |
| 20260509030027 | 60 | 147 | 1.0 | 5.0 | 0.00 | 0.00 | 0.00 | 63 | 1028.6 |
| 20260509025127 | 61 | 253 | 1.0 | 2.0 | 0.00 | 0.00 | 0.00 | 61 | 1028.8 |
| 20260509023327 | 63 | 262 | 2.0 | 4.0 | 0.00 | 0.00 | 0.00 | 58 | 1029.1 |
| 20260509022428 | 62 | 279 | 1.0 | 4.0 | 0.00 | 0.00 | 0.00 | 59 | 1029.2 |
| 20260509021527 | 61 | 261 | 3.0 | 4.0 | 0.00 | 0.00 | 0.00 | 60 | 1029.4 |
| 20260509020627 | 62 | 248 | 4.0 | 7.0 | 0.00 | 0.00 | 0.00 | 59 | 1029.6 |
| 20260509015727 | 63 | 253 | 3.0 | 7.0 | 0.00 | 0.00 | 0.00 | 57 | 1029.6 |
| 20260509014827 | 63 | 255 | 1.0 | 4.0 | 0.00 | 0.00 | 0.00 | 57 | 1029.7 |
| 20260509013027 | 61 | 256 | 0.0 | 2.0 | 0.00 | 0.00 | 0.00 | 60 | 1029.9 |
| 20260509012127 | 62 | 213 | 2.0 | 5.0 | 0.00 | 0.00 | 0.00 | 59 | 1029.9 |
| 20260509011227 | 62 | 224 | 1.0 | 5.0 | 0.00 | 0.00 | 0.00 | 58 | 1029.9 |
| 20260509010327 | 63 | 194 | 1.0 | 4.0 | 0.00 | 0.00 | 0.00 | 58 | 1029.9 |
| 20260509005428 | 62 | 275 | 2.0 | 6.0 | 0.00 | 0.00 | 0.00 | 60 | 1029.9 |
| 20260509004526 | 62 | 266 | 3.0 | 8.0 | 0.00 | 0.00 | 0.00 | 58 | 1029.9 |
| 20260509003627 | 63 | 274 | 3.0 | 7.0 | 0.00 | 0.00 | 0.00 | 57 | 1029.9 |
| 20260509002727 | 62 | 251 | 3.0 | 6.0 | 0.00 | 0.00 | 0.00 | 58 | 1029.9 |
| 20260509000927 | 61 | 279 | 2.0 | 4.0 | 0.00 | 0.00 | 0.00 | 61 | 1030.1 |
| 20260509000027 | 61 | 286 | 2.0 | 4.0 | 0.00 | 0.00 | 0.00 | 60 | 1030.1 |
| 20260508235127 | 61 | 254 | 1.0 | 3.0 | 0.00 | 0.00 | 0.00 | 60 | 1030.2 |
| 20260508234227 | 60 | 57 | 1.0 | 3.0 | 0.00 | 0.00 | 0.00 | 61 | 1030.2 |
| 20260508232427 | 58 | 42 | 0.0 | 2.0 | 0.00 | 0.00 | 0.00 | 66 | 1030.1 |
| 20260508231526 | 56 | 43 | 0.0 | 1.0 | 0.00 | 0.00 | 0.00 | 66 | 1030.0 |
| 20260508230627 | 54 | 43 | 0.0 | 1.0 | 0.00 | 0.00 | 0.00 | 66 | 1030.0 |
| 20260508225727 | 54 | 43 | 0.0 | 1.0 | 0.00 | 0.00 | 0.00 | 65 | 1029.9 |
| 20260508223927 | 53 | 42 | 0.0 | 1.0 | 0.00 | 0.00 | 0.00 | 65 | 1029.8 |
| 20260508222126 | 50 | 42 | 0.0 | 1.0 | 0.00 | 0.00 | 0.00 | 65 | 1029.7 |
| 20260508221226 | 50 | 42 | 0.0 | 1.0 | 0.00 | 0.00 | 0.00 | 65 | 1029.6 |
| 20260508220327 | 50 | 42 | 0.0 | 3.0 | 0.00 | 0.00 | 0.00 | 65 | 1029.6 |
| 20260508215427 | 49 | 259 | 1.0 | 3.0 | 0.00 | 0.00 | 0.00 | 65 | 1029.6 |
| 20260508214526 | 49 | 328 | 1.0 | 2.0 | 0.00 | 0.00 | 0.00 | 65 | 1029.5 |
| 20260508213627 | 49 | 341 | 1.0 | 2.0 | 0.00 | 0.00 | 0.00 | 65 | 1029.4 |
| 20260508212727 | 49 | 0 | 0.0 | 0.0 | 0.00 | 0.00 | 0.00 | 65 | 1029.3 |
| 20260508211827 | 49 | 0 | 0.0 | 0.0 | 0.00 | 0.00 | 0.00 | 65 | 1029.1 |
| 20260508210026 | 49 | 167 | 1.0 | 3.0 | 0.00 | 0.00 | 0.00 | 65 | 1029.2 |
| 20260508205126 | 49 | 167 | 1.0 | 3.0 | 0.00 | 0.00 | 0.00 | 65 | 1029.2 |
| 20260508203326 | 49 | 166 | 0.0 | 1.0 | 0.00 | 0.00 | 0.00 | 65 | 1029.0 |
| 20260508202426 | 49 | 0 | 0.0 | 0.0 | 0.00 | 0.00 | 0.00 | 65 | 1028.9 |
| 20260508201526 | 49 | 166 | 0.0 | 1.0 | 0.00 | 0.00 | 0.00 | 65 | 1028.8 |
| 20260508195727 | 49 | 166 | 1.0 | 1.0 | 0.00 | 0.00 | 0.00 | 65 | 1028.7 |
| 20260508194826 | 49 | 166 | 0.0 | 1.0 | 0.00 | 0.00 | 0.00 | 65 | 1028.6 |
| 20260508193927 | 49 | 166 | 0.0 | 1.0 | 0.00 | 0.00 | 0.00 | 65 | 1028.6 |
| 20260508193026 | 50 | 166 | 0.0 | 1.0 | 0.00 | 0.00 | 0.00 | 65 | 1028.5 |
| 20260508192126 | 50 | 0 | 0.0 | 0.0 | 0.00 | 0.00 | 0.00 | 65 | 1028.5 |
| 20260508191226 | 50 | 166 | 0.0 | 1.0 | 0.00 | 0.00 | 0.00 | 65 | 1028.4 |
| 20260508190327 | 50 | 167 | 0.0 | 1.0 | 0.00 | 0.00 | 0.00 | 64 | 1028.4 |
| 20260508184526 | 50 | 166 | 0.0 | 1.0 | 0.00 | 0.00 | 0.00 | 64 | 1028.4 |
| 20260508183626 | 50 | 167 | 0.0 | 3.0 | 0.00 | 0.00 | 0.00 | 64 | 1028.3 |
| 20260508182726 | 50 | 167 | 1.0 | 4.0 | 0.00 | 0.00 | 0.00 | 64 | 1028.5 |
| 20260508180926 | 50 | 166 | 1.0 | 3.0 | 0.00 | 0.00 | 0.00 | 64 | 1028.6 |
| 20260508180026 | 50 | 166 | 0.0 | 3.0 | 0.00 | 0.00 | 0.00 | 64 | 1028.7 |
| 20260508175126 | 50 | 166 | 0.0 | 1.0 | 0.00 | 0.00 | 0.00 | 64 | 1028.7 |
| 20260508174226 | 50 | 166 | 0.0 | 1.0 | 0.00 | 0.00 | 0.00 | 64 | 1028.7 |
| 20260508173326 | 50 | 166 | 0.0 | 1.0 | 0.00 | 0.00 | 0.00 | 64 | 1028.7 |
| 20260508172426 | 51 | 0 | 0.0 | 0.0 | 0.00 | 0.00 | 0.00 | 64 | 1028.8 |
| 20260508171526 | 51 | 0 | 0.0 | 0.0 | 0.00 | 0.00 | 0.00 | 64 | 1028.8 |
| 20260508170626 | 51 | 0 | 0.0 | 0.0 | 0.00 | 0.00 | 0.00 | 64 | 1028.8 |
| 20260508165726 | 51 | 166 | 0.0 | 1.0 | 0.00 | 0.00 | 0.00 | 64 | 1028.8 |